Scott, AR

10:41 AM CDT on September 01, 2015 (GMT -0500)
Central Business Equipment | | Change Station
CLOSE
Current Station
Personal Weather Station
Location: Sherwood, AR
Elevation: 288 ft
Nearby Weather Stations

Elev 288 ft 34.82 °N, 92.20 °W | Updated 0 second ago

Mostly Cloudy
Mostly Cloudy
82.2 °F
Feels Like 87 °F
N
0.9
Wind Variable Wind from East
Gusts 2.5 mph

Today
High -- | Low -- °F
--% Chance of Precip.
Yesterday
High -- | Low -- °F
Precip. -- in
6:40 AM 7:34 PM
Waning Gibbous, 88% visible
Pressure 30.08 in
Visibility 7.0 miles
Clouds Scattered Clouds 10000 ft
Mostly Cloudy 25000 ft
Heat Index 87 °F
Dew Point 72 °F
Humidity 72%
Rainfall 0.00 in
Snow Depth Not available.
UV 2 out of 12
Pollen 9.90 out of 12
Air Quality Not available.
Flu Activity Not available.
METAR KLIT 011453Z 00000KT 7SM SCT100 BKN250 29/21 A3008 RMK AO2 SLP185 T02890211 50005
Pressure 30.08 in
Visibility 7.0 miles
Clouds Scattered Clouds 10000 ft
Mostly Cloudy 25000 ft
Heat Index 87 °F
Dew Point 72 °F
Humidity 72%
Rainfall 0.00 in
Snow Depth Not available.
UV 2 out of 12
Pollen 9.90 out of 12
Air Quality Not available.
Flu Activity Not available.
METAR KLIT 011453Z 00000KT 7SM SCT100 BKN250 29/21 A3008 RMK AO2 SLP185 T02890211 50005

10-Day Weather Forecast

×

Almanac

Astronomy

Sep. 01, 2015 Rise Set
Actual Time
Civil Twilight
Nautical Twilight
Astronomical Twilight
Moon
Length of Visible Light
Length of Day
Tomorrow will be .
, % of the Moon is Illuminated

Today's Extremes

State Highs State Lows

Community

WunderPhotos

Upload Photos

1,851,538 photos uploaded!

WunderBlogs® & News

Nearby

Air Quality

  Air Quality AQ Index Pollutant
Not available.

Snow Depth

Station Depth Elevation

Earthquake Activity

City Distance Mag. Time & Date
Minimum magnitude displayed is 2.5.

Coastal Water Temperatures

Place Temperature

Stations

Nearby Weather Stations

Station Location Temp. Windchill Dew Point Humidity Wind Precip. Elev Updated Type